createdAt,value
2018-05-21T00:00:37.351Z,16.29
2018-05-21T00:02:30.340Z,16.33
2018-05-21T00:03:30.297Z,16.21
2018-05-21T00:05:23.100Z,16.17
2018-05-21T00:06:23.149Z,16.13
2018-05-21T00:08:15.910Z,16.16
2018-05-21T00:09:15.844Z,16.21
2018-05-21T00:11:08.700Z,16.15
2018-05-21T00:12:08.671Z,16.12
2018-05-21T00:14:01.688Z,16.09
2018-05-21T00:15:01.610Z,16.10
2018-05-21T00:16:54.590Z,16.08
2018-05-21T00:17:54.578Z,16.04
2018-05-21T00:19:47.910Z,16.04
2018-05-21T00:20:47.841Z,16.02
2018-05-21T00:22:40.820Z,16.08
2018-05-21T00:23:40.760Z,16.04
2018-05-21T00:25:33.716Z,16.09
2018-05-21T00:26:33.695Z,16.09
2018-05-21T00:28:26.769Z,16.12
2018-05-21T00:29:26.534Z,16.01
2018-05-21T00:31:19.959Z,15.98
2018-05-21T00:32:19.461Z,16.02
2018-05-21T00:34:12.515Z,15.98
2018-05-21T00:35:12.460Z,15.97
2018-05-21T00:37:05.272Z,16.00
2018-05-21T00:38:05.244Z,15.98
2018-05-21T00:39:58.275Z,16.00
2018-05-21T00:40:58.181Z,16.00
2018-05-21T00:42:51.145Z,15.98
2018-05-21T00:43:51.116Z,15.91
2018-05-21T00:45:44.549Z,15.97
2018-05-21T00:46:44.246Z,16.01
2018-05-21T00:48:37.210Z,16.00
2018-05-21T00:49:37.180Z,15.84
2018-05-21T00:51:30.191Z,16.00
2018-05-21T00:52:30.117Z,15.98
2018-05-21T00:54:23.390Z,15.95
2018-05-21T00:55:23.244Z,15.92
2018-05-21T00:57:16.265Z,16.02
2018-05-21T00:58:16.237Z,15.94
2018-05-21T01:00:09.256Z,15.86
2018-05-21T01:01:09.202Z,15.88
2018-05-21T01:03:02.182Z,15.86
2018-05-21T01:04:02.146Z,15.92
2018-05-21T01:05:55.135Z,15.94
2018-05-21T01:06:55.091Z,15.88
2018-05-21T01:08:48.387Z,15.82
2018-05-21T01:09:48.231Z,15.82
2018-05-21T01:11:41.235Z,15.88
2018-05-21T01:12:41.171Z,15.80
2018-05-21T01:14:33.995Z,15.86
2018-05-21T01:15:34.172Z,15.82
2018-05-21T01:17:27.269Z,15.84
2018-05-21T01:18:27.081Z,15.67
2018-05-21T01:20:20.043Z,15.73
2018-05-21T01:21:20.027Z,15.76
2018-05-21T01:23:13.037Z,15.88
2018-05-21T01:24:12.984Z,15.77
2018-05-21T01:26:06.026Z,15.72
2018-05-21T01:27:05.851Z,15.72
2018-05-21T01:28:58.812Z,15.77
2018-05-21T01:29:58.778Z,15.73
2018-05-21T01:31:51.757Z,15.82
2018-05-21T01:32:51.711Z,15.79
2018-05-21T01:34:44.962Z,15.79
2018-05-21T01:35:44.888Z,15.73
2018-05-21T01:37:37.905Z,15.73
2018-05-21T01:38:37.947Z,15.82
2018-05-21T01:40:30.658Z,15.79
2018-05-21T01:41:30.650Z,15.77
2018-05-21T01:43:23.848Z,15.77
2018-05-21T01:44:23.735Z,15.79
2018-05-21T01:46:16.563Z,15.76
2018-05-21T01:47:16.514Z,15.73
2018-05-21T01:49:09.521Z,15.76
2018-05-21T01:50:09.501Z,15.75
2018-05-21T01:52:02.676Z,15.68
2018-05-21T01:53:02.547Z,15.73
2018-05-21T01:54:55.516Z,15.80
2018-05-21T01:55:55.472Z,15.82
2018-05-21T01:57:48.469Z,15.88
2018-05-21T01:58:48.417Z,15.73
2018-05-21T02:00:41.526Z,15.80
2018-05-21T02:01:41.358Z,15.75
2018-05-21T02:03:34.342Z,15.72
2018-05-21T02:04:34.282Z,15.77
2018-05-21T02:06:27.112Z,15.70
2018-05-21T02:07:27.084Z,15.76
2018-05-21T02:09:20.413Z,15.73
2018-05-21T02:10:20.200Z,15.73
2018-05-21T02:12:13.183Z,15.68
2018-05-21T02:13:13.135Z,15.62
2018-05-21T02:15:06.136Z,15.64
2018-05-21T02:16:06.081Z,15.67
2018-05-21T02:17:58.916Z,15.73
2018-05-21T02:18:58.872Z,15.65
2018-05-21T02:20:51.806Z,15.75
2018-05-21T02:21:51.671Z,15.70
2018-05-21T02:23:44.673Z,15.70
2018-05-21T02:24:44.607Z,15.72
2018-05-21T02:26:37.561Z,15.67
2018-05-21T02:27:37.540Z,15.67
2018-05-21T02:29:30.741Z,15.65
2018-05-21T02:30:30.637Z,15.61
2018-05-21T02:32:23.585Z,15.70
2018-05-21T02:33:23.552Z,15.65
2018-05-21T02:35:16.623Z,15.72
2018-05-21T02:36:16.476Z,15.70
2018-05-21T02:38:09.371Z,15.77
2018-05-21T02:39:09.327Z,15.72
2018-05-21T02:41:02.245Z,15.76
2018-05-21T02:42:02.098Z,15.70
2018-05-21T02:43:55.091Z,15.76
2018-05-21T02:44:55.093Z,15.79
2018-05-21T02:46:48.028Z,15.80
2018-05-21T02:47:47.982Z,15.82
2018-05-21T02:49:40.959Z,15.86
2018-05-21T02:50:40.826Z,15.75
2018-05-21T02:52:33.786Z,15.84
2018-05-21T02:53:33.761Z,15.84
2018-05-21T02:55:26.672Z,15.82
2018-05-21T02:56:26.742Z,15.91
2018-05-21T02:58:19.854Z,15.84
2018-05-21T02:59:19.816Z,15.79
2018-05-21T03:01:12.783Z,15.88
2018-05-21T03:02:12.726Z,15.82
2018-05-21T03:04:05.716Z,15.84
2018-05-21T03:05:05.659Z,15.83
2018-05-21T03:06:58.843Z,15.94
2018-05-21T03:07:58.809Z,15.90
2018-05-21T03:09:51.792Z,15.91
2018-05-21T03:10:51.773Z,15.92
2018-05-21T03:12:44.937Z,15.95
2018-05-21T03:13:44.828Z,15.82
2018-05-21T03:15:37.668Z,15.82
2018-05-21T03:16:37.622Z,15.88
2018-05-21T03:18:30.612Z,15.91
2018-05-21T03:19:30.574Z,15.80
2018-05-21T03:21:23.900Z,15.82
2018-05-21T03:22:23.748Z,15.86
2018-05-21T03:24:16.681Z,15.84
2018-05-21T03:25:16.654Z,15.83
2018-05-21T03:27:09.642Z,15.88
2018-05-21T03:28:09.584Z,15.76
2018-05-21T03:30:02.499Z,15.86
2018-05-21T03:31:02.366Z,15.77
2018-05-21T03:32:55.402Z,15.88
2018-05-21T03:33:55.299Z,15.91
2018-05-21T03:35:48.172Z,15.86
2018-05-21T03:36:48.105Z,15.82
2018-05-21T03:38:41.063Z,15.79
2018-05-21T03:39:41.033Z,15.90
2018-05-21T03:41:34.154Z,15.91
2018-05-21T03:42:33.957Z,15.91
2018-05-21T03:44:26.931Z,15.94
2018-05-21T03:45:26.892Z,15.91
2018-05-21T03:47:19.882Z,15.86
2018-05-21T03:48:19.877Z,15.94
2018-05-21T03:50:13.062Z,15.92
2018-05-21T03:51:12.989Z,15.92
2018-05-21T03:53:05.987Z,15.88
2018-05-21T03:54:06.077Z,15.91
2018-05-21T03:55:58.753Z,15.90
2018-05-21T03:56:58.756Z,15.95
2018-05-21T03:58:51.919Z,15.90
2018-05-21T03:59:51.844Z,15.97
2018-05-21T04:01:44.838Z,15.94
2018-05-21T04:02:44.824Z,15.94
2018-05-21T04:04:37.754Z,15.95
2018-05-21T04:05:37.714Z,16.00
2018-05-21T04:07:30.729Z,16.04
2018-05-21T04:08:30.535Z,16.05
2018-05-21T04:10:23.478Z,15.98
2018-05-21T04:11:23.455Z,16.09
2018-05-21T04:13:16.419Z,16.15
2018-05-21T04:14:16.465Z,16.20
2018-05-21T04:16:09.189Z,16.15
2018-05-21T04:17:09.161Z,16.20
2018-05-21T04:19:02.228Z,16.15
2018-05-21T04:20:02.005Z,16.13
2018-05-21T04:21:54.981Z,16.28
2018-05-21T04:22:54.934Z,16.21
2018-05-21T04:24:47.905Z,16.26
2018-05-21T04:25:47.924Z,16.17
2018-05-21T04:27:41.120Z,16.16
2018-05-21T04:28:40.991Z,16.15
2018-05-21T04:30:33.952Z,16.13
2018-05-21T04:31:33.936Z,16.16
2018-05-21T04:33:26.974Z,16.10
2018-05-21T04:34:26.904Z,16.15
2018-05-21T04:36:19.790Z,16.31
2018-05-21T04:37:19.703Z,16.33
2018-05-21T04:39:12.690Z,16.35
2018-05-21T04:40:12.645Z,16.28
2018-05-21T04:42:05.606Z,16.26
2018-05-21T04:43:05.648Z,16.26
2018-05-21T04:44:58.894Z,16.43
2018-05-21T04:45:58.843Z,16.39
2018-05-21T04:47:51.849Z,16.39
2018-05-21T04:48:51.806Z,16.35
2018-05-21T04:50:45.061Z,16.47
2018-05-21T04:51:44.939Z,16.42
2018-05-21T04:53:37.903Z,16.49
2018-05-21T04:54:37.870Z,16.47
2018-05-21T04:56:31.294Z,16.49
2018-05-21T04:57:31.146Z,16.46
2018-05-21T04:59:24.142Z,16.49
2018-05-21T05:00:24.096Z,16.51
2018-05-21T05:02:17.080Z,16.53
2018-05-21T05:03:17.035Z,16.47
2018-05-21T05:05:09.865Z,16.50
2018-05-21T05:06:09.824Z,16.51
2018-05-21T05:08:02.779Z,16.58
2018-05-21T05:09:02.739Z,16.58
2018-05-21T05:10:55.920Z,16.64
2018-05-21T05:11:55.875Z,16.60
2018-05-21T05:13:48.971Z,16.74
2018-05-21T05:14:48.928Z,16.66
2018-05-21T05:16:41.933Z,16.83
2018-05-21T05:17:42.006Z,16.78
2018-05-21T05:19:34.960Z,16.87
2018-05-21T05:20:34.939Z,16.90
2018-05-21T05:22:27.929Z,16.90
2018-05-21T05:23:27.871Z,16.90
2018-05-21T05:25:20.901Z,16.96
2018-05-21T05:26:20.841Z,16.96
2018-05-21T05:28:14.061Z,17.02
2018-05-21T05:29:13.998Z,17.02
2018-05-21T05:31:07.026Z,17.04
2018-05-21T05:32:07.080Z,17.11
2018-05-21T05:33:59.771Z,17.08
2018-05-21T05:34:59.774Z,17.06
2018-05-21T05:36:52.901Z,17.06
2018-05-21T05:37:52.854Z,17.06
2018-05-21T05:39:45.839Z,17.08
2018-05-21T05:40:45.811Z,17.02
2018-05-21T05:42:38.779Z,17.04
2018-05-21T05:43:38.733Z,17.01
2018-05-21T05:45:31.586Z,17.09
2018-05-21T05:46:31.545Z,17.09
2018-05-21T05:48:24.524Z,17.04
2018-05-21T05:49:24.469Z,17.08
2018-05-21T05:51:17.471Z,17.09
2018-05-21T05:52:17.450Z,17.06
2018-05-21T05:54:10.772Z,17.08
2018-05-21T05:55:10.725Z,17.05
2018-05-21T05:57:03.688Z,17.05
2018-05-21T05:58:03.676Z,17.08
2018-05-21T05:59:56.912Z,17.09
2018-05-21T06:00:56.786Z,17.11
2018-05-21T06:02:49.622Z,17.12
2018-05-21T06:03:49.564Z,17.12
2018-05-21T06:05:42.386Z,17.26
2018-05-21T06:06:42.356Z,17.34
2018-05-21T06:08:35.318Z,17.34
2018-05-21T06:09:35.266Z,17.33
2018-05-21T06:11:28.146Z,17.49
2018-05-21T06:12:28.096Z,17.60
2018-05-21T06:14:21.117Z,17.72
2018-05-21T06:15:21.038Z,17.79
2018-05-21T06:17:13.995Z,17.85
2018-05-21T06:18:14.046Z,17.90
2018-05-21T06:20:07.197Z,17.98
2018-05-21T06:21:07.128Z,18.01
2018-05-21T06:22:59.952Z,18.15
2018-05-21T06:23:59.906Z,18.10
2018-05-21T06:25:53.008Z,18.13
2018-05-21T06:26:52.870Z,18.08
2018-05-21T06:28:46.095Z,18.20
2018-05-21T06:29:46.017Z,18.18
2018-05-21T06:31:38.991Z,18.28
2018-05-21T06:32:39.112Z,18.31
2018-05-21T06:34:32.355Z,18.41
2018-05-21T06:35:32.088Z,18.47
2018-05-21T06:37:25.040Z,18.53
2018-05-21T06:38:25.016Z,18.53
2018-05-21T06:40:18.031Z,18.68
2018-05-21T06:41:17.977Z,18.75
2018-05-21T06:43:10.832Z,18.88
2018-05-21T06:44:10.793Z,18.92
2018-05-21T06:46:03.806Z,19.08
2018-05-21T06:47:03.597Z,19.15
2018-05-21T06:48:56.580Z,19.19
2018-05-21T06:49:56.537Z,19.24
2018-05-21T06:51:49.543Z,19.34
2018-05-21T06:52:49.497Z,19.33
2018-05-21T06:54:42.569Z,19.37
2018-05-21T06:55:42.366Z,19.31
2018-05-21T06:57:35.343Z,19.39
2018-05-21T06:58:35.313Z,19.31
2018-05-21T07:00:28.154Z,19.27
2018-05-21T07:01:28.100Z,19.31
2018-05-21T07:03:21.083Z,19.18
2018-05-21T07:04:21.048Z,19.16
2018-05-21T07:06:14.067Z,19.02
2018-05-21T07:07:13.922Z,19.18
2018-05-21T07:09:06.917Z,19.15
2018-05-21T07:10:06.876Z,19.16
2018-05-21T07:12:00.272Z,19.04
2018-05-21T07:13:00.141Z,19.07
2018-05-21T07:14:53.127Z,19.14
2018-05-21T07:15:53.103Z,19.14
2018-05-21T07:17:46.067Z,19.19
2018-05-21T07:18:46.049Z,19.24
2018-05-21T07:20:38.856Z,19.27
2018-05-21T07:21:38.803Z,19.22
2018-05-21T07:23:31.821Z,19.30
2018-05-21T07:24:31.691Z,19.24
2018-05-21T07:26:24.512Z,19.24
2018-05-21T07:27:24.411Z,19.24
2018-05-21T07:29:17.397Z,19.21
2018-05-21T07:30:17.354Z,19.22
2018-05-21T07:32:10.683Z,19.27
2018-05-21T07:33:10.509Z,19.36
2018-05-21T07:35:03.483Z,19.47
2018-05-21T07:36:03.459Z,19.37
2018-05-21T07:37:56.464Z,19.44
2018-05-21T07:38:56.403Z,19.41
2018-05-21T07:40:49.468Z,19.66
2018-05-21T07:41:49.329Z,19.59
2018-05-21T07:43:42.303Z,19.55
2018-05-21T07:44:42.273Z,19.56
2018-05-21T07:46:35.507Z,19.58
2018-05-21T07:47:35.449Z,19.63
2018-05-21T07:49:28.324Z,19.62
2018-05-21T07:50:28.238Z,19.67
2018-05-21T07:52:21.243Z,19.82
2018-05-21T07:53:21.186Z,19.73
2018-05-21T07:55:14.176Z,19.85
2018-05-21T07:56:14.143Z,19.88
2018-05-21T07:58:06.989Z,19.91
2018-05-21T07:59:06.942Z,19.94
2018-05-21T08:00:59.894Z,20.03
2018-05-21T08:01:59.865Z,20.10
2018-05-21T08:03:52.865Z,20.11
2018-05-21T08:04:52.886Z,20.16
2018-05-21T08:06:47.024Z,20.21
2018-05-21T08:07:46.958Z,20.19
2018-05-21T08:09:40.034Z,20.26
2018-05-21T08:10:40.057Z,20.31
2018-05-21T08:12:33.001Z,20.48
2018-05-21T08:13:32.906Z,20.50
2018-05-21T08:15:25.879Z,20.55
2018-05-21T08:16:25.765Z,20.67
2018-05-21T08:18:18.824Z,20.67
2018-05-21T08:19:18.764Z,20.66
2018-05-21T08:21:11.785Z,20.81
2018-05-21T08:22:11.796Z,20.80
2018-05-21T08:24:04.871Z,20.82
2018-05-21T08:25:04.804Z,20.90
2018-05-21T08:26:57.793Z,20.97
2018-05-21T08:27:57.900Z,21.03
2018-05-21T08:29:51.033Z,21.02
2018-05-21T08:30:50.934Z,21.03
2018-05-21T08:32:44.014Z,21.15
2018-05-21T08:33:43.979Z,21.07
2018-05-21T08:35:37.205Z,21.11
2018-05-21T08:36:37.154Z,21.20
2018-05-21T08:38:30.150Z,21.20
2018-05-21T08:39:30.108Z,21.20
2018-05-21T08:41:23.103Z,21.25
2018-05-21T08:42:23.064Z,21.30
2018-05-21T08:44:16.153Z,21.33
2018-05-21T08:45:16.061Z,21.32
2018-05-21T08:47:08.987Z,21.40
2018-05-21T08:48:08.979Z,21.42
2018-05-21T08:50:02.033Z,21.50
2018-05-21T08:51:02.060Z,21.60
2018-05-21T08:52:54.999Z,21.70
2018-05-21T08:53:55.032Z,21.73
2018-05-21T08:55:47.838Z,21.88
2018-05-21T08:56:47.777Z,21.88
2018-05-21T08:58:40.822Z,22.00
2018-05-21T08:59:40.733Z,22.04
2018-05-21T09:01:33.800Z,21.93
2018-05-21T09:02:33.629Z,21.98
2018-05-21T09:04:26.693Z,22.04
2018-05-21T09:05:26.625Z,22.18
2018-05-21T09:07:19.637Z,22.14
2018-05-21T09:08:19.588Z,22.18
2018-05-21T09:10:12.708Z,22.36
2018-05-21T09:11:12.476Z,22.45
2018-05-21T09:13:05.616Z,22.54
2018-05-21T09:14:05.710Z,22.55
2018-05-21T09:15:58.931Z,22.68
2018-05-21T09:16:58.753Z,22.65
2018-05-21T09:18:51.792Z,22.76
2018-05-21T09:19:51.727Z,22.66
2018-05-21T09:21:44.715Z,22.83
2018-05-21T09:22:44.747Z,22.91
2018-05-21T09:24:38.098Z,22.90
2018-05-21T09:25:37.516Z,22.98
2018-05-21T09:27:30.567Z,23.09
2018-05-21T09:28:30.513Z,23.08
2018-05-21T09:30:23.499Z,23.00
2018-05-21T09:31:23.580Z,22.96
2018-05-21T09:33:16.590Z,23.21
2018-05-21T09:34:16.510Z,23.20
2018-05-21T09:36:09.527Z,23.25
2018-05-21T09:37:09.506Z,23.37
2018-05-21T09:39:02.792Z,23.50
2018-05-21T09:40:02.604Z,23.51
2018-05-21T09:41:55.668Z,23.54
2018-05-21T09:42:55.590Z,23.55
2018-05-21T09:44:48.650Z,23.54
2018-05-21T09:45:48.710Z,23.39
2018-05-21T09:47:41.713Z,23.56
2018-05-21T09:48:41.703Z,23.66
2018-05-21T09:50:34.681Z,23.92
2018-05-21T09:51:34.713Z,24.02
2018-05-21T09:53:27.931Z,24.08
2018-05-21T09:54:27.781Z,24.23
2018-05-21T09:56:20.656Z,24.45
2018-05-21T09:57:20.627Z,24.54
2018-05-21T09:59:13.678Z,25.23
2018-05-21T10:00:13.625Z,25.65
2018-05-21T10:02:07.151Z,26.38
2018-05-21T10:03:06.802Z,26.22
2018-05-21T10:04:59.998Z,26.71
2018-05-21T10:05:59.802Z,26.95
2018-05-21T10:07:53.010Z,27.60
2018-05-21T10:08:53.105Z,28.27
2018-05-21T10:10:46.004Z,28.89
2018-05-21T10:11:46.094Z,29.44
2018-05-21T10:13:38.905Z,30.09
2018-05-21T10:14:38.862Z,29.36
2018-05-21T10:16:31.978Z,29.53
2018-05-21T10:17:31.960Z,29.95
2018-05-21T10:19:25.093Z,30.53
2018-05-21T10:20:24.953Z,30.61
2018-05-21T10:22:19.131Z,30.91
2018-05-21T10:23:19.059Z,30.37
2018-05-21T10:25:12.100Z,30.72
2018-05-21T10:26:12.143Z,31.05
2018-05-21T10:28:05.343Z,30.99
2018-05-21T10:29:05.250Z,31.29
2018-05-21T10:30:59.164Z,31.78
2018-05-21T10:31:59.117Z,31.90
2018-05-21T10:33:52.714Z,32.30
2018-05-21T10:34:52.107Z,32.22
2018-05-21T10:36:45.227Z,32.12
2018-05-21T10:37:45.146Z,31.97
2018-05-21T10:39:39.017Z,32.53
2018-05-21T10:40:38.987Z,31.22
2018-05-21T10:42:32.310Z,32.37
2018-05-21T10:43:32.184Z,32.65
2018-05-21T10:45:25.093Z,32.97
2018-05-21T10:46:25.007Z,32.89
2018-05-21T10:48:18.094Z,33.55
2018-05-21T10:49:18.038Z,33.55
2018-05-21T10:51:11.218Z,32.77
2018-05-21T10:52:11.185Z,33.14
2018-05-21T10:54:04.258Z,33.47
2018-05-21T10:55:04.203Z,33.49
2018-05-21T10:56:57.099Z,33.71
2018-05-21T10:57:57.096Z,33.52
2018-05-21T10:59:50.128Z,34.38
2018-05-21T11:00:50.094Z,34.61
2018-05-21T11:02:44.006Z,34.71
2018-05-21T11:03:44.082Z,34.14
2018-05-21T11:05:37.260Z,34.13
2018-05-21T11:06:37.146Z,34.51
2018-05-21T11:08:30.244Z,35.11
2018-05-21T11:09:30.187Z,35.10
2018-05-21T11:11:23.530Z,34.51
2018-05-21T11:12:23.416Z,33.64
2018-05-21T11:14:16.450Z,34.24
2018-05-21T11:15:16.454Z,34.20
2018-05-21T11:17:09.418Z,34.96
2018-05-21T11:18:09.387Z,35.05
2018-05-21T11:20:03.343Z,35.26
2018-05-21T11:21:03.341Z,35.30
2018-05-21T11:22:56.362Z,35.79
2018-05-21T11:23:56.364Z,35.78
2018-05-21T11:25:49.567Z,35.78
2018-05-21T11:26:49.406Z,35.85
2018-05-21T11:28:42.451Z,35.63
2018-05-21T11:29:42.387Z,35.93
2018-05-21T11:31:35.734Z,35.92
2018-05-21T11:32:35.660Z,35.79
2018-05-21T11:34:28.709Z,35.07
2018-05-21T11:35:28.654Z,35.34
2018-05-21T11:37:21.896Z,34.39
2018-05-21T11:38:21.862Z,33.20
2018-05-21T11:40:14.944Z,34.54
2018-05-21T11:41:14.896Z,34.83
2018-05-21T11:43:08.251Z,35.24
2018-05-21T11:44:08.175Z,35.44
2018-05-21T11:46:01.229Z,35.78
2018-05-21T11:47:01.202Z,36.05
2018-05-21T11:48:55.342Z,36.31
2018-05-21T11:49:55.224Z,36.24
2018-05-21T11:51:48.278Z,35.92
2018-05-21T11:52:48.215Z,35.85
2018-05-21T11:54:41.238Z,35.48
2018-05-21T11:55:41.247Z,35.73
2018-05-21T11:57:34.354Z,34.58
2018-05-21T11:58:34.259Z,33.89
2018-05-21T12:00:27.216Z,34.88
2018-05-21T12:01:27.289Z,34.75
2018-05-21T12:03:20.654Z,35.04
2018-05-21T12:04:20.366Z,35.56
2018-05-21T12:06:13.436Z,35.80
2018-05-21T12:07:13.485Z,35.74
2018-05-21T12:09:06.728Z,35.78
2018-05-21T12:10:06.601Z,35.95
2018-05-21T12:11:59.653Z,36.00
2018-05-21T12:12:59.609Z,35.36
2018-05-21T12:14:52.927Z,35.15
2018-05-21T12:15:52.781Z,35.45
2018-05-21T12:17:45.874Z,35.49
2018-05-21T12:18:45.793Z,35.64
2018-05-21T12:20:38.721Z,35.68
2018-05-21T12:21:38.719Z,35.79
2018-05-21T12:23:31.890Z,35.60
2018-05-21T12:24:31.845Z,34.92
2018-05-21T12:26:24.891Z,35.04
2018-05-21T12:27:24.888Z,34.80
2018-05-21T12:29:18.084Z,34.90
2018-05-21T12:30:18.029Z,33.81
2018-05-21T12:32:11.059Z,34.32
2018-05-21T12:33:11.090Z,34.47
2018-05-21T12:35:04.438Z,34.55
2018-05-21T12:36:04.203Z,34.50
2018-05-21T12:37:57.354Z,34.60
2018-05-21T12:38:57.305Z,34.51
2018-05-21T12:40:50.649Z,32.14
2018-05-21T12:41:50.593Z,32.59
2018-05-21T12:43:43.614Z,32.80
2018-05-21T12:44:43.616Z,32.63
2018-05-21T12:46:36.495Z,32.23
2018-05-21T12:47:36.458Z,32.18
2018-05-21T12:49:29.546Z,32.15
2018-05-21T12:50:29.482Z,31.96
2018-05-21T12:52:22.532Z,31.81
2018-05-21T12:53:22.517Z,31.93
2018-05-21T12:55:15.505Z,31.22
2018-05-21T12:56:15.401Z,31.22
2018-05-21T12:58:08.443Z,31.25
2018-05-21T12:59:08.367Z,31.00
2018-05-21T13:01:01.419Z,31.15
2018-05-21T13:02:01.401Z,31.25
2018-05-21T13:03:54.516Z,31.31
2018-05-21T13:04:54.457Z,31.12
2018-05-21T13:06:47.538Z,30.77
2018-05-21T13:07:47.486Z,30.72
2018-05-21T13:09:40.400Z,30.50
2018-05-21T13:10:40.345Z,30.43
2018-05-21T13:12:33.431Z,30.27
2018-05-21T13:13:33.359Z,30.31
2018-05-21T13:15:26.230Z,30.37
2018-05-21T13:16:26.171Z,30.37
2018-05-21T13:18:19.200Z,30.37
2018-05-21T13:19:19.126Z,30.55
2018-05-21T13:21:12.089Z,30.51
2018-05-21T13:22:11.950Z,30.81
2018-05-21T13:24:05.092Z,31.09
2018-05-21T13:25:04.933Z,31.28
2018-05-21T13:26:58.010Z,31.49
2018-05-21T13:27:57.985Z,31.52
2018-05-21T13:29:51.065Z,31.66
2018-05-21T13:30:51.017Z,31.65
2018-05-21T13:32:44.041Z,30.61
2018-05-21T13:33:44.077Z,30.78
2018-05-21T13:35:36.849Z,30.75
2018-05-21T13:36:36.824Z,30.73
2018-05-21T13:38:29.924Z,30.85
2018-05-21T13:39:29.668Z,30.88
2018-05-21T13:41:22.716Z,31.00
2018-05-21T13:42:22.691Z,31.14
2018-05-21T13:44:15.738Z,31.21
2018-05-21T13:45:15.684Z,30.65
2018-05-21T13:47:08.793Z,30.90
2018-05-21T13:48:08.750Z,30.97
2018-05-21T13:50:01.734Z,31.27
2018-05-21T13:51:01.739Z,31.25
2018-05-21T13:52:54.997Z,31.24
2018-05-21T13:53:54.906Z,31.46
2018-05-21T13:55:47.757Z,31.70
2018-05-21T13:56:47.732Z,31.77
2018-05-21T13:58:40.746Z,31.80
2018-05-21T13:59:40.701Z,31.87
2018-05-21T14:01:33.852Z,32.12
2018-05-21T14:02:33.844Z,32.14
2018-05-21T14:04:26.889Z,32.18
2018-05-21T14:05:26.832Z,32.04
2018-05-21T14:07:19.731Z,31.69
2018-05-21T14:08:19.698Z,31.49
2018-05-21T14:10:12.707Z,31.78
2018-05-21T14:11:12.671Z,31.59
2018-05-21T14:13:05.705Z,31.17
2018-05-21T14:14:05.701Z,31.24
2018-05-21T14:15:58.997Z,31.80
2018-05-21T14:16:58.856Z,31.92
2018-05-21T14:18:51.981Z,32.36
2018-05-21T14:19:51.948Z,32.37
2018-05-21T14:21:45.020Z,32.68
2018-05-21T14:22:44.901Z,32.78
2018-05-21T14:24:37.929Z,33.12
2018-05-21T14:25:37.893Z,33.07
2018-05-21T14:27:30.945Z,33.04
2018-05-21T14:28:30.911Z,32.34
2018-05-21T14:30:24.023Z,32.78
2018-05-21T14:31:23.981Z,32.93
2018-05-21T14:33:17.371Z,33.00
2018-05-21T14:34:17.363Z,32.77
2018-05-21T14:36:10.311Z,32.27
2018-05-21T14:37:10.157Z,32.12
2018-05-21T14:39:03.237Z,32.03
2018-05-21T14:40:03.289Z,31.73
2018-05-21T14:41:57.044Z,31.65
2018-05-21T14:42:57.037Z,31.43
2018-05-21T14:44:50.076Z,31.44
2018-05-21T14:45:49.908Z,31.62
2018-05-21T14:47:42.932Z,31.49
2018-05-21T14:48:42.924Z,31.42
2018-05-21T14:50:36.288Z,31.24
2018-05-21T14:51:36.132Z,31.22
2018-05-21T14:53:29.187Z,31.03
2018-05-21T14:54:29.269Z,31.03
2018-05-21T14:56:22.546Z,30.80
2018-05-21T14:57:22.318Z,30.87
2018-05-21T14:59:15.364Z,30.77
2018-05-21T15:00:15.299Z,30.83
2018-05-21T15:02:08.468Z,30.91
2018-05-21T15:03:08.313Z,30.88
2018-05-21T15:05:01.456Z,30.85
2018-05-21T15:06:01.370Z,30.72
2018-05-21T15:07:54.371Z,30.43
2018-05-21T15:08:54.441Z,30.15
2018-05-21T15:10:47.567Z,30.40
2018-05-21T15:11:47.514Z,30.21
2018-05-21T15:13:40.539Z,29.90
2018-05-21T15:14:40.489Z,30.00
2018-05-21T15:16:33.867Z,30.16
2018-05-21T15:17:33.663Z,30.32
2018-05-21T15:19:27.097Z,30.46
2018-05-21T15:20:26.864Z,30.68
2018-05-21T15:22:20.202Z,30.88
2018-05-21T15:23:20.049Z,30.94
2018-05-21T15:25:13.111Z,31.31
2018-05-21T15:26:13.130Z,31.47
2018-05-21T15:28:06.295Z,32.01
2018-05-21T15:29:06.226Z,31.85
2018-05-21T15:30:59.669Z,32.11
2018-05-21T15:31:59.306Z,32.15
2018-05-21T15:33:52.531Z,32.26
2018-05-21T15:34:52.471Z,32.40
2018-05-21T15:36:46.279Z,32.59
2018-05-21T15:37:46.243Z,32.70
2018-05-21T15:39:39.301Z,33.04
2018-05-21T15:40:39.234Z,33.19
2018-05-21T15:42:32.337Z,32.86
2018-05-21T15:43:32.295Z,32.92
2018-05-21T15:45:25.202Z,32.33
2018-05-21T15:46:25.178Z,32.40
2018-05-21T15:48:18.203Z,32.53
2018-05-21T15:49:18.192Z,32.18
2018-05-21T15:51:11.249Z,31.90
2018-05-21T15:52:11.232Z,32.07
2018-05-21T15:54:04.999Z,32.27
2018-05-21T15:55:04.949Z,31.97
2018-05-21T15:56:58.059Z,32.21
2018-05-21T15:57:57.985Z,32.11
2018-05-21T15:59:51.067Z,31.89
2018-05-21T16:00:51.021Z,31.74
2018-05-21T16:02:44.952Z,32.15
2018-05-21T16:03:44.045Z,32.22
2018-05-21T16:05:37.356Z,32.14
2018-05-21T16:06:37.269Z,32.34
2018-05-21T16:08:30.364Z,32.56
2018-05-21T16:09:30.374Z,32.75
2018-05-21T16:11:23.549Z,33.01
2018-05-21T16:12:23.450Z,33.00
2018-05-21T16:14:16.513Z,32.83
2018-05-21T16:15:16.469Z,32.85
2018-05-21T16:17:09.716Z,32.95
2018-05-21T16:18:09.640Z,33.17
2018-05-21T16:20:03.594Z,33.49
2018-05-21T16:21:03.547Z,33.50
2018-05-21T16:22:56.806Z,33.69
2018-05-21T16:23:56.749Z,33.58
2018-05-21T16:25:49.857Z,33.52
2018-05-21T16:26:49.816Z,33.52
2018-05-21T16:28:42.960Z,33.74
2018-05-21T16:29:42.929Z,33.84
2018-05-21T16:31:35.982Z,33.68
2018-05-21T16:32:35.948Z,33.74
2018-05-21T16:34:28.803Z,33.17
2018-05-21T16:35:28.814Z,33.14
2018-05-21T16:37:22.062Z,33.22
2018-05-21T16:38:21.993Z,33.34
2018-05-21T16:40:15.871Z,33.40
2018-05-21T16:41:15.897Z,33.45
2018-05-21T16:43:08.947Z,33.61
2018-05-21T16:44:08.898Z,33.52
2018-05-21T16:46:01.897Z,33.22
2018-05-21T16:47:01.973Z,33.39
2018-05-21T16:48:55.028Z,33.39
2018-05-21T16:49:54.937Z,33.30
2018-05-21T16:51:48.143Z,33.09
2018-05-21T16:52:48.136Z,33.02
2018-05-21T16:54:41.033Z,32.75
2018-05-21T16:55:41.121Z,32.71
2018-05-21T16:57:34.320Z,32.56
2018-05-21T16:58:34.229Z,32.29
2018-05-21T17:00:27.319Z,31.51
2018-05-21T17:01:27.335Z,31.28
2018-05-21T17:03:21.131Z,30.96
2018-05-21T17:04:21.048Z,30.87
2018-05-21T17:06:14.062Z,30.65
2018-05-21T17:07:13.998Z,30.54
2018-05-21T17:09:07.938Z,30.13
2018-05-21T17:10:07.869Z,30.03
2018-05-21T17:12:00.901Z,29.79
2018-05-21T17:13:00.862Z,29.88
2018-05-21T17:14:53.919Z,29.86
2018-05-21T17:15:53.689Z,29.86
2018-05-21T17:17:46.704Z,29.57
2018-05-21T17:18:46.672Z,29.47
2018-05-21T17:20:39.742Z,29.23
2018-05-21T17:21:39.675Z,29.14
2018-05-21T17:23:32.595Z,29.12
2018-05-21T17:24:32.600Z,28.94
2018-05-21T17:26:25.661Z,29.05
2018-05-21T17:27:25.598Z,29.04
2018-05-21T17:29:18.712Z,28.76
2018-05-21T17:30:18.639Z,28.75
2018-05-21T17:32:11.768Z,28.66
2018-05-21T17:33:11.715Z,28.49
2018-05-21T17:35:05.384Z,28.12
2018-05-21T17:36:05.376Z,28.02
2018-05-21T17:37:58.369Z,27.83
2018-05-21T17:38:58.345Z,27.82
2018-05-21T17:40:51.355Z,27.71
2018-05-21T17:41:51.265Z,27.55
2018-05-21T17:43:44.747Z,27.42
2018-05-21T17:44:44.276Z,27.37
2018-05-21T17:46:37.459Z,27.21
2018-05-21T17:47:37.513Z,27.12
2018-05-21T17:49:30.425Z,27.00
2018-05-21T17:50:30.371Z,26.81
2018-05-21T17:52:23.450Z,26.71
2018-05-21T17:53:23.435Z,26.65
2018-05-21T17:55:16.524Z,26.56
2018-05-21T17:56:16.345Z,26.43
2018-05-21T17:58:09.378Z,26.43
2018-05-21T17:59:09.305Z,26.41
2018-05-21T18:01:02.475Z,26.23
2018-05-21T18:02:02.391Z,26.19
2018-05-21T18:03:55.654Z,26.03
2018-05-21T18:04:55.648Z,25.99
2018-05-21T18:06:48.653Z,26.03
2018-05-21T18:07:48.604Z,25.96
2018-05-21T18:09:41.553Z,25.93
2018-05-21T18:10:41.490Z,25.84
2018-05-21T18:12:34.577Z,25.83
2018-05-21T18:13:34.506Z,25.75
2018-05-21T18:15:27.328Z,25.73
2018-05-21T18:16:27.323Z,25.70
2018-05-21T18:18:20.544Z,25.65
2018-05-21T18:19:20.500Z,25.62
2018-05-21T18:21:13.465Z,25.46
2018-05-21T18:22:13.549Z,25.48
2018-05-21T18:24:06.767Z,25.41
2018-05-21T18:25:06.613Z,25.46
2018-05-21T18:26:59.622Z,25.38
2018-05-21T18:27:59.568Z,25.28
2018-05-21T18:29:52.542Z,25.26
2018-05-21T18:30:52.523Z,25.21
2018-05-21T18:32:45.650Z,25.07
2018-05-21T18:33:45.590Z,25.03